sensor_id;sensor_type;location;lat;lon;timestamp;P1;durP1;ratioP1;P2;durP2;ratioP2
56399;SDS011;42298;53.638;9.876;2022-09-09T00:04:03;73.45;;;34.25;;
56399;SDS011;42298;53.638;9.876;2022-09-09T00:06:43;81.28;;;35.25;;
56399;SDS011;42298;53.638;9.876;2022-09-09T00:11:40;41.30;;;27.77;;
56399;SDS011;42298;53.638;9.876;2022-09-09T00:14:20;49.72;;;27.25;;
56399;SDS011;42298;53.638;9.876;2022-09-09T00:16:49;30.58;;;23.90;;
56399;SDS011;42298;53.638;9.876;2022-09-09T00:19:22;41.80;;;26.02;;
56399;SDS011;42298;53.638;9.876;2022-09-09T00:25:23;31.95;;;22.65;;
56399;SDS011;42298;53.638;9.876;2022-09-09T00:27:54;33.63;;;24.58;;
56399;SDS011;42298;53.638;9.876;2022-09-09T00:30:25;59.08;;;29.77;;
56399;SDS011;42298;53.638;9.876;2022-09-09T00:32:59;37.40;;;26.45;;
56399;SDS011;42298;53.638;9.876;2022-09-09T00:37:58;54.92;;;28.55;;
56399;SDS011;42298;53.638;9.876;2022-09-09T00:40:35;31.30;;;24.90;;
56399;SDS011;42298;53.638;9.876;2022-09-09T00:57:25;36.25;;;26.27;;
56399;SDS011;42298;53.638;9.876;2022-09-09T01:05:37;41.88;;;28.30;;
56399;SDS011;42298;53.638;9.876;2022-09-09T01:08:12;32.63;;;26.27;;
56399;SDS011;42298;53.638;9.876;2022-09-09T01:10:45;40.92;;;28.63;;
56399;SDS011;42298;53.638;9.876;2022-09-09T01:13:36;31.63;;;24.85;;
56399;SDS011;42298;53.638;9.876;2022-09-09T01:16:03;36.80;;;26.08;;
56399;SDS011;42298;53.638;9.876;2022-09-09T01:18:34;29.80;;;23.90;;
56399;SDS011;42298;53.638;9.876;2022-09-09T01:23:49;42.80;;;28.10;;
56399;SDS011;42298;53.638;9.876;2022-09-09T01:26:43;43.30;;;29.40;;
56399;SDS011;42298;53.638;9.876;2022-09-09T01:29:15;34.25;;;26.10;;
56399;SDS011;42298;53.638;9.876;2022-09-09T01:31:51;33.03;;;25.15;;
56399;SDS011;42298;53.638;9.876;2022-09-09T01:34:19;37.70;;;27.70;;
56399;SDS011;42298;53.638;9.876;2022-09-09T01:36:53;57.35;;;32.92;;
56399;SDS011;42298;53.638;9.876;2022-09-09T01:39:24;38.75;;;28.85;;
56399;SDS011;42298;53.638;9.876;2022-09-09T01:41:50;53.85;;;34.60;;
56399;SDS011;42298;53.638;9.876;2022-09-09T01:44:16;40.90;;;30.52;;
56399;SDS011;42298;53.638;9.876;2022-09-09T01:46:43;49.70;;;29.15;;
56399;SDS011;42298;53.638;9.876;2022-09-09T01:49:08;43.35;;;30.15;;
56399;SDS011;42298;53.638;9.876;2022-09-09T01:51:35;43.67;;;28.83;;
56399;SDS011;42298;53.638;9.876;2022-09-09T01:54:03;71.90;;;34.00;;
56399;SDS011;42298;53.638;9.876;2022-09-09T02:02:19;64.10;;;29.50;;
56399;SDS011;42298;53.638;9.876;2022-09-09T02:04:52;55.25;;;28.50;;
56399;SDS011;42298;53.638;9.876;2022-09-09T02:07:40;133.57;;;35.13;;
56399;SDS011;42298;53.638;9.876;2022-09-09T02:10:11;238.15;;;41.97;;
56399;SDS011;42298;53.638;9.876;2022-09-09T02:12:45;100.40;;;30.67;;
56399;SDS011;42298;53.638;9.876;2022-09-09T02:15:28;41.13;;;24.90;;
56399;SDS011;42298;53.638;9.876;2022-09-09T02:17:57;135.10;;;32.72;;
56399;SDS011;42298;53.638;9.876;2022-09-09T02:20:24;38.28;;;26.42;;
56399;SDS011;42298;53.638;9.876;2022-09-09T02:22:52;66.10;;;27.90;;
56399;SDS011;42298;53.638;9.876;2022-09-09T02:25:20;29.98;;;23.73;;
56399;SDS011;42298;53.638;9.876;2022-09-09T02:27:49;34.88;;;24.65;;
56399;SDS011;42298;53.638;9.876;2022-09-09T02:30:16;39.03;;;26.00;;
56399;SDS011;42298;53.638;9.876;2022-09-09T02:32:43;253.40;;;40.90;;
56399;SDS011;42298;53.638;9.876;2022-09-09T02:35:12;31.13;;;22.92;;
56399;SDS011;42298;53.638;9.876;2022-09-09T02:37:41;145.77;;;32.60;;
56399;SDS011;42298;53.638;9.876;2022-09-09T02:40:10;42.97;;;24.73;;
56399;SDS011;42298;53.638;9.876;2022-09-09T02:42:39;28.30;;;21.70;;
56399;SDS011;42298;53.638;9.876;2022-09-09T02:45:08;50.88;;;23.58;;
56399;SDS011;42298;53.638;9.876;2022-09-09T02:50:35;32.65;;;22.67;;
56399;SDS011;42298;53.638;9.876;2022-09-09T02:55:52;30.13;;;21.80;;
56399;SDS011;42298;53.638;9.876;2022-09-09T02:58:25;87.07;;;24.70;;
56399;SDS011;42298;53.638;9.876;2022-09-09T03:00:51;31.80;;;22.23;;
56399;SDS011;42298;53.638;9.876;2022-09-09T03:03:17;164.25;;;30.10;;
56399;SDS011;42298;53.638;9.876;2022-09-09T03:05:44;34.33;;;21.58;;
56399;SDS011;42298;53.638;9.876;2022-09-09T03:08:10;83.63;;;26.40;;
56399;SDS011;42298;53.638;9.876;2022-09-09T03:10:36;31.70;;;22.17;;
56399;SDS011;42298;53.638;9.876;2022-09-09T03:13:02;33.13;;;21.67;;
56399;SDS011;42298;53.638;9.876;2022-09-09T03:15:29;32.25;;;22.83;;
56399;SDS011;42298;53.638;9.876;2022-09-09T03:17:56;32.55;;;20.98;;
56399;SDS011;42298;53.638;9.876;2022-09-09T03:20:22;26.52;;;20.70;;
56399;SDS011;42298;53.638;9.876;2022-09-09T03:22:48;25.52;;;19.75;;
56399;SDS011;42298;53.638;9.876;2022-09-09T03:25:14;33.60;;;20.55;;
56399;SDS011;42298;53.638;9.876;2022-09-09T03:27:40;28.60;;;20.70;;
56399;SDS011;42298;53.638;9.876;2022-09-09T03:30:05;25.60;;;18.88;;
56399;SDS011;42298;53.638;9.876;2022-09-09T03:32:31;30.65;;;20.73;;
56399;SDS011;42298;53.638;9.876;2022-09-09T03:34:56;25.95;;;19.70;;
56399;SDS011;42298;53.638;9.876;2022-09-09T03:37:22;24.33;;;18.73;;
56399;SDS011;42298;53.638;9.876;2022-09-09T03:39:47;39.67;;;22.17;;
56399;SDS011;42298;53.638;9.876;2022-09-09T03:42:13;29.90;;;21.98;;
56399;SDS011;42298;53.638;9.876;2022-09-09T03:44:39;63.05;;;22.80;;
56399;SDS011;42298;53.638;9.876;2022-09-09T03:47:07;24.75;;;18.38;;
56399;SDS011;42298;53.638;9.876;2022-09-09T03:49:32;35.67;;;20.10;;
56399;SDS011;42298;53.638;9.876;2022-09-09T03:51:57;51.15;;;21.40;;
56399;SDS011;42298;53.638;9.876;2022-09-09T03:54:24;134.50;;;25.67;;
56399;SDS011;42298;53.638;9.876;2022-09-09T03:56:50;29.33;;;19.15;;
56399;SDS011;42298;53.638;9.876;2022-09-09T03:59:15;22.08;;;17.30;;
56399;SDS011;42298;53.638;9.876;2022-09-09T04:01:41;89.22;;;23.27;;
56399;SDS011;42298;53.638;9.876;2022-09-09T04:04:06;151.30;;;25.95;;
56399;SDS011;42298;53.638;9.876;2022-09-09T04:06:33;23.80;;;16.05;;
56399;SDS011;42298;53.638;9.876;2022-09-09T04:08:59;98.35;;;20.42;;
56399;SDS011;42298;53.638;9.876;2022-09-09T04:11:27;36.80;;;17.80;;
56399;SDS011;42298;53.638;9.876;2022-09-09T04:13:52;20.70;;;15.48;;
56399;SDS011;42298;53.638;9.876;2022-09-09T04:16:18;26.38;;;15.55;;
56399;SDS011;42298;53.638;9.876;2022-09-09T04:18:43;21.48;;;15.48;;
56399;SDS011;42298;53.638;9.876;2022-09-09T04:21:09;26.38;;;16.50;;
56399;SDS011;42298;53.638;9.876;2022-09-09T04:23:37;20.00;;;15.35;;
56399;SDS011;42298;53.638;9.876;2022-09-09T04:26:03;21.80;;;16.58;;
56399;SDS011;42298;53.638;9.876;2022-09-09T04:28:29;18.98;;;14.63;;
56399;SDS011;42298;53.638;9.876;2022-09-09T04:30:56;20.35;;;14.80;;
56399;SDS011;42298;53.638;9.876;2022-09-09T04:33:25;19.13;;;14.38;;
56399;SDS011;42298;53.638;9.876;2022-09-09T04:35:53;23.05;;;15.27;;
56399;SDS011;42298;53.638;9.876;2022-09-09T04:38:19;20.38;;;14.50;;
56399;SDS011;42298;53.638;9.876;2022-09-09T04:40:47;19.95;;;14.10;;
56399;SDS011;42298;53.638;9.876;2022-09-09T04:43:13;20.52;;;15.27;;
56399;SDS011;42298;53.638;9.876;2022-09-09T04:45:40;19.48;;;14.25;;
56399;SDS011;42298;53.638;9.876;2022-09-09T04:48:06;18.90;;;14.07;;
56399;SDS011;42298;53.638;9.876;2022-09-09T04:50:32;18.95;;;14.48;;
56399;SDS011;42298;53.638;9.876;2022-09-09T04:52:59;20.25;;;14.63;;
56399;SDS011;42298;53.638;9.876;2022-09-09T04:55:30;20.13;;;15.07;;
56399;SDS011;42298;53.638;9.876;2022-09-09T04:57:56;20.23;;;15.00;;
56399;SDS011;42298;53.638;9.876;2022-09-09T05:00:22;19.70;;;14.68;;
56399;SDS011;42298;53.638;9.876;2022-09-09T05:02:47;18.92;;;14.40;;
56399;SDS011;42298;53.638;9.876;2022-09-09T05:05:13;16.67;;;12.57;;
56399;SDS011;42298;53.638;9.876;2022-09-09T05:07:38;19.83;;;14.40;;
56399;SDS011;42298;53.638;9.876;2022-09-09T05:10:03;18.75;;;14.52;;
56399;SDS011;42298;53.638;9.876;2022-09-09T05:12:30;17.38;;;13.00;;
56399;SDS011;42298;53.638;9.876;2022-09-09T05:14:56;17.42;;;13.23;;
56399;SDS011;42298;53.638;9.876;2022-09-09T05:17:21;21.95;;;14.85;;
56399;SDS011;42298;53.638;9.876;2022-09-09T05:19:47;17.52;;;13.02;;
56399;SDS011;42298;53.638;9.876;2022-09-09T05:22:12;25.63;;;15.35;;
56399;SDS011;42298;53.638;9.876;2022-09-09T05:24:37;18.65;;;13.48;;
56399;SDS011;42298;53.638;9.876;2022-09-09T05:27:03;20.17;;;14.43;;
56399;SDS011;42298;53.638;9.876;2022-09-09T05:29:31;18.90;;;14.10;;
56399;SDS011;42298;53.638;9.876;2022-09-09T05:31:58;19.23;;;13.98;;
56399;SDS011;42298;53.638;9.876;2022-09-09T05:34:24;19.30;;;13.15;;
56399;SDS011;42298;53.638;9.876;2022-09-09T05:36:50;18.90;;;13.20;;
56399;SDS011;42298;53.638;9.876;2022-09-09T05:39:17;19.25;;;13.50;;
56399;SDS011;42298;53.638;9.876;2022-09-09T05:41:42;17.42;;;12.38;;
56399;SDS011;42298;53.638;9.876;2022-09-09T05:44:07;17.15;;;12.13;;
56399;SDS011;42298;53.638;9.876;2022-09-09T05:46:32;17.13;;;12.30;;
56399;SDS011;42298;53.638;9.876;2022-09-09T05:48:58;19.50;;;12.50;;
56399;SDS011;42298;53.638;9.876;2022-09-09T05:51:24;18.90;;;13.20;;
56399;SDS011;42298;53.638;9.876;2022-09-09T05:53:53;16.88;;;11.63;;
56399;SDS011;42298;53.638;9.876;2022-09-09T05:56:20;19.48;;;13.63;;
56399;SDS011;42298;53.638;9.876;2022-09-09T05:58:49;18.08;;;11.68;;
56399;SDS011;42298;53.638;9.876;2022-09-09T06:01:16;17.08;;;11.60;;
56399;SDS011;42298;53.638;9.876;2022-09-09T06:03:43;18.08;;;12.68;;
56399;SDS011;42298;53.638;9.876;2022-09-09T06:06:11;17.02;;;11.05;;
56399;SDS011;42298;53.638;9.876;2022-09-09T06:08:39;13.80;;;9.20;;
56399;SDS011;42298;53.638;9.876;2022-09-09T06:11:13;13.43;;;9.18;;
56399;SDS011;42298;53.638;9.876;2022-09-09T06:13:40;12.20;;;6.85;;
56399;SDS011;42298;53.638;9.876;2022-09-09T06:16:16;11.13;;;6.60;;
56399;SDS011;42298;53.638;9.876;2022-09-09T06:18:42;13.32;;;8.15;;
56399;SDS011;42298;53.638;9.876;2022-09-09T06:21:13;10.55;;;6.60;;
56399;SDS011;42298;53.638;9.876;2022-09-09T06:23:40;11.32;;;6.15;;
56399;SDS011;42298;53.638;9.876;2022-09-09T06:28:34;11.27;;;5.78;;
56399;SDS011;42298;53.638;9.876;2022-09-09T06:31:01;11.30;;;5.35;;
56399;SDS011;42298;53.638;9.876;2022-09-09T06:33:31;8.77;;;4.97;;
56399;SDS011;42298;53.638;9.876;2022-09-09T06:36:04;8.75;;;4.68;;
56399;SDS011;42298;53.638;9.876;2022-09-09T06:38:30;8.65;;;5.18;;
56399;SDS011;42298;53.638;9.876;2022-09-09T06:40:57;9.65;;;4.30;;
56399;SDS011;42298;53.638;9.876;2022-09-09T06:43:24;7.70;;;4.18;;
56399;SDS011;42298;53.638;9.876;2022-09-09T06:45:54;10.43;;;4.85;;
56399;SDS011;42298;53.638;9.876;2022-09-09T06:48:20;10.07;;;5.20;;
56399;SDS011;42298;53.638;9.876;2022-09-09T06:50:45;8.63;;;4.70;;
56399;SDS011;42298;53.638;9.876;2022-09-09T06:53:11;7.20;;;4.20;;
56399;SDS011;42298;53.638;9.876;2022-09-09T06:55:38;9.52;;;4.57;;
56399;SDS011;42298;53.638;9.876;2022-09-09T06:58:08;7.20;;;4.25;;
56399;SDS011;42298;53.638;9.876;2022-09-09T07:00:34;11.15;;;5.30;;
56399;SDS011;42298;53.638;9.876;2022-09-09T07:02:59;7.93;;;4.45;;
56399;SDS011;42298;53.638;9.876;2022-09-09T07:05:25;8.55;;;4.32;;
56399;SDS011;42298;53.638;9.876;2022-09-09T07:07:50;8.70;;;4.45;;
56399;SDS011;42298;53.638;9.876;2022-09-09T07:10:16;9.07;;;4.80;;
56399;SDS011;42298;53.638;9.876;2022-09-09T07:12:42;9.68;;;4.20;;
56399;SDS011;42298;53.638;9.876;2022-09-09T07:15:08;9.18;;;4.75;;
56399;SDS011;42298;53.638;9.876;2022-09-09T07:17:33;9.60;;;4.70;;
56399;SDS011;42298;53.638;9.876;2022-09-09T07:19:59;8.02;;;4.15;;
56399;SDS011;42298;53.638;9.876;2022-09-09T07:22:24;10.70;;;5.25;;
56399;SDS011;42298;53.638;9.876;2022-09-09T07:24:50;9.95;;;4.75;;
56399;SDS011;42298;53.638;9.876;2022-09-09T07:27:15;8.63;;;4.40;;
56399;SDS011;42298;53.638;9.876;2022-09-09T07:29:40;9.65;;;4.32;;
56399;SDS011;42298;53.638;9.876;2022-09-09T07:32:06;10.90;;;4.18;;
56399;SDS011;42298;53.638;9.876;2022-09-09T07:34:34;7.38;;;3.83;;
56399;SDS011;42298;53.638;9.876;2022-09-09T07:36:59;9.00;;;3.97;;
56399;SDS011;42298;53.638;9.876;2022-09-09T07:39:24;10.93;;;4.32;;
56399;SDS011;42298;53.638;9.876;2022-09-09T07:41:49;7.55;;;4.45;;
56399;SDS011;42298;53.638;9.876;2022-09-09T07:44:17;8.60;;;4.18;;
56399;SDS011;42298;53.638;9.876;2022-09-09T07:46:46;9.52;;;4.18;;
56399;SDS011;42298;53.638;9.876;2022-09-09T07:49:12;8.10;;;4.28;;
56399;SDS011;42298;53.638;9.876;2022-09-09T07:51:39;8.88;;;3.45;;
56399;SDS011;42298;53.638;9.876;2022-09-09T07:54:08;9.40;;;4.30;;
56399;SDS011;42298;53.638;9.876;2022-09-09T07:56:36;7.88;;;4.03;;
56399;SDS011;42298;53.638;9.876;2022-09-09T07:59:02;9.05;;;4.30;;
56399;SDS011;42298;53.638;9.876;2022-09-09T08:01:38;7.75;;;4.20;;
56399;SDS011;42298;53.638;9.876;2022-09-09T08:04:12;7.32;;;4.18;;
56399;SDS011;42298;53.638;9.876;2022-09-09T08:06:40;7.07;;;4.07;;
56399;SDS011;42298;53.638;9.876;2022-09-09T08:09:08;7.13;;;3.95;;
56399;SDS011;42298;53.638;9.876;2022-09-09T08:11:34;9.18;;;4.10;;
56399;SDS011;42298;53.638;9.876;2022-09-09T08:14:01;8.95;;;4.38;;
56399;SDS011;42298;53.638;9.876;2022-09-09T08:16:31;8.32;;;3.80;;
56399;SDS011;42298;53.638;9.876;2022-09-09T08:18:58;8.60;;;3.75;;
56399;SDS011;42298;53.638;9.876;2022-09-09T08:21:25;9.30;;;3.83;;
56399;SDS011;42298;53.638;9.876;2022-09-09T08:23:55;9.25;;;4.00;;
56399;SDS011;42298;53.638;9.876;2022-09-09T08:26:23;8.25;;;4.00;;
56399;SDS011;42298;53.638;9.876;2022-09-09T08:28:51;8.80;;;3.50;;
56399;SDS011;42298;53.638;9.876;2022-09-09T08:34:23;9.27;;;3.90;;
56399;SDS011;42298;53.638;9.876;2022-09-09T08:36:57;5.72;;;3.25;;
56399;SDS011;42298;53.638;9.876;2022-09-09T08:39:23;7.50;;;3.28;;
56399;SDS011;42298;53.638;9.876;2022-09-09T08:47:20;6.78;;;3.35;;
56399;SDS011;42298;53.638;9.876;2022-09-09T08:54:58;7.55;;;3.50;;
56399;SDS011;42298;53.638;9.876;2022-09-09T08:57:37;7.65;;;3.58;;
56399;SDS011;42298;53.638;9.876;2022-09-09T09:00:04;5.88;;;3.30;;
56399;SDS011;42298;53.638;9.876;2022-09-09T09:02:51;5.80;;;2.80;;
56399;SDS011;42298;53.638;9.876;2022-09-09T09:05:57;7.10;;;2.90;;
56399;SDS011;42298;53.638;9.876;2022-09-09T09:08:36;6.22;;;2.53;;
56399;SDS011;42298;53.638;9.876;2022-09-09T09:11:22;6.30;;;3.42;;
56399;SDS011;42298;53.638;9.876;2022-09-09T09:14:23;5.55;;;2.67;;
56399;SDS011;42298;53.638;9.876;2022-09-09T09:16:52;6.72;;;2.85;;
56399;SDS011;42298;53.638;9.876;2022-09-09T09:19:21;7.40;;;3.33;;
56399;SDS011;42298;53.638;9.876;2022-09-09T09:21:57;6.65;;;2.90;;
56399;SDS011;42298;53.638;9.876;2022-09-09T09:24:40;8.10;;;2.90;;
56399;SDS011;42298;53.638;9.876;2022-09-09T09:27:21;7.25;;;2.75;;
56399;SDS011;42298;53.638;9.876;2022-09-09T09:29:49;3.83;;;2.35;;
56399;SDS011;42298;53.638;9.876;2022-09-09T09:32:18;4.72;;;2.63;;
56399;SDS011;42298;53.638;9.876;2022-09-09T09:34:53;5.60;;;2.63;;
56399;SDS011;42298;53.638;9.876;2022-09-09T09:37:34;6.88;;;2.30;;
56399;SDS011;42298;53.638;9.876;2022-09-09T09:40:13;5.70;;;2.45;;
56399;SDS011;42298;53.638;9.876;2022-09-09T09:42:53;6.53;;;2.10;;
56399;SDS011;42298;53.638;9.876;2022-09-09T09:45:33;7.90;;;2.33;;
56399;SDS011;42298;53.638;9.876;2022-09-09T09:48:04;4.70;;;2.00;;
56399;SDS011;42298;53.638;9.876;2022-09-09T09:50:31;5.47;;;2.00;;
56399;SDS011;42298;53.638;9.876;2022-09-09T09:52:59;3.58;;;1.65;;
56399;SDS011;42298;53.638;9.876;2022-09-09T09:55:27;3.22;;;1.67;;
56399;SDS011;42298;53.638;9.876;2022-09-09T09:57:54;4.43;;;1.65;;
56399;SDS011;42298;53.638;9.876;2022-09-09T10:00:26;3.72;;;1.50;;
56399;SDS011;42298;53.638;9.876;2022-09-09T10:02:51;3.40;;;1.40;;
56399;SDS011;42298;53.638;9.876;2022-09-09T10:05:27;3.33;;;1.50;;
56399;SDS011;42298;53.638;9.876;2022-09-09T10:08:01;2.95;;;1.20;;
56399;SDS011;42298;53.638;9.876;2022-09-09T10:10:41;3.35;;;1.00;;
56399;SDS011;42298;53.638;9.876;2022-09-09T10:13:34;5.15;;;1.40;;
56399;SDS011;42298;53.638;9.876;2022-09-09T10:16:17;2.95;;;1.17;;
56399;SDS011;42298;53.638;9.876;2022-09-09T10:18:58;4.07;;;1.40;;
56399;SDS011;42298;53.638;9.876;2022-09-09T10:27:27;3.45;;;1.40;;
56399;SDS011;42298;53.638;9.876;2022-09-09T10:35:50;2.35;;;1.40;;
56399;SDS011;42298;53.638;9.876;2022-09-09T10:51:28;3.40;;;1.17;;
56399;SDS011;42298;53.638;9.876;2022-09-09T10:54:40;2.92;;;1.10;;
56399;SDS011;42298;53.638;9.876;2022-09-09T10:57:15;2.75;;;1.13;;
56399;SDS011;42298;53.638;9.876;2022-09-09T10:59:48;2.08;;;0.85;;
56399;SDS011;42298;53.638;9.876;2022-09-09T11:02:28;5.13;;;1.27;;
56399;SDS011;42298;53.638;9.876;2022-09-09T11:04:56;5.65;;;1.25;;
56399;SDS011;42298;53.638;9.876;2022-09-09T11:07:33;3.75;;;1.10;;
56399;SDS011;42298;53.638;9.876;2022-09-09T11:10:06;3.30;;;1.20;;
56399;SDS011;42298;53.638;9.876;2022-09-09T11:12:43;5.05;;;1.45;;
56399;SDS011;42298;53.638;9.876;2022-09-09T11:15:20;3.80;;;1.33;;
56399;SDS011;42298;53.638;9.876;2022-09-09T11:17:52;9.60;;;1.38;;
56399;SDS011;42298;53.638;9.876;2022-09-09T11:20:21;4.70;;;1.60;;
56399;SDS011;42298;53.638;9.876;2022-09-09T11:22:55;3.90;;;1.50;;
56399;SDS011;42298;53.638;9.876;2022-09-09T11:25:35;3.83;;;1.52;;
56399;SDS011;42298;53.638;9.876;2022-09-09T11:36:31;2.78;;;1.33;;
56399;SDS011;42298;53.638;9.876;2022-09-09T11:41:51;5.65;;;1.60;;
56399;SDS011;42298;53.638;9.876;2022-09-09T11:44:19;5.40;;;1.67;;
56399;SDS011;42298;53.638;9.876;2022-09-09T11:46:53;4.68;;;1.70;;
56399;SDS011;42298;53.638;9.876;2022-09-09T11:49:28;4.25;;;1.38;;
56399;SDS011;42298;53.638;9.876;2022-09-09T11:52:12;4.03;;;1.80;;
56399;SDS011;42298;53.638;9.876;2022-09-09T11:54:46;4.78;;;1.38;;
56399;SDS011;42298;53.638;9.876;2022-09-09T11:59:57;5.65;;;1.50;;
56399;SDS011;42298;53.638;9.876;2022-09-09T12:02:25;4.43;;;1.63;;
56399;SDS011;42298;53.638;9.876;2022-09-09T12:05:10;6.13;;;1.80;;
56399;SDS011;42298;53.638;9.876;2022-09-09T12:07:40;6.05;;;1.75;;
56399;SDS011;42298;53.638;9.876;2022-09-09T12:10:29;3.33;;;1.70;;
56399;SDS011;42298;53.638;9.876;2022-09-09T12:13:15;8.40;;;1.90;;
56399;SDS011;42298;53.638;9.876;2022-09-09T12:15:51;4.15;;;1.50;;
56399;SDS011;42298;53.638;9.876;2022-09-09T12:18:22;6.22;;;1.50;;
56399;SDS011;42298;53.638;9.876;2022-09-09T12:24:03;4.35;;;1.50;;
56399;SDS011;42298;53.638;9.876;2022-09-09T12:29:19;3.05;;;1.40;;
56399;SDS011;42298;53.638;9.876;2022-09-09T12:40:03;6.35;;;1.75;;
56399;SDS011;42298;53.638;9.876;2022-09-09T12:42:30;8.80;;;1.90;;
56399;SDS011;42298;53.638;9.876;2022-09-09T12:45:02;7.75;;;1.92;;
56399;SDS011;42298;53.638;9.876;2022-09-09T12:47:44;6.28;;;2.03;;
56399;SDS011;42298;53.638;9.876;2022-09-09T12:50:22;5.65;;;2.00;;
56399;SDS011;42298;53.638;9.876;2022-09-09T12:52:52;6.20;;;2.20;;
56399;SDS011;42298;53.638;9.876;2022-09-09T12:55:38;6.43;;;2.13;;
56399;SDS011;42298;53.638;9.876;2022-09-09T12:58:05;8.45;;;2.35;;
56399;SDS011;42298;53.638;9.876;2022-09-09T13:00:32;5.45;;;1.85;;
56399;SDS011;42298;53.638;9.876;2022-09-09T13:02:59;4.47;;;1.75;;
56399;SDS011;42298;53.638;9.876;2022-09-09T13:05:37;6.72;;;1.88;;
56399;SDS011;42298;53.638;9.876;2022-09-09T13:08:08;5.68;;;1.98;;
56399;SDS011;42298;53.638;9.876;2022-09-09T13:10:36;8.23;;;1.80;;
56399;SDS011;42298;53.638;9.876;2022-09-09T13:13:28;3.85;;;1.80;;
56399;SDS011;42298;53.638;9.876;2022-09-09T13:16:04;6.53;;;2.00;;
56399;SDS011;42298;53.638;9.876;2022-09-09T13:18:42;6.75;;;2.53;;
56399;SDS011;42298;53.638;9.876;2022-09-09T13:21:11;9.07;;;2.42;;
56399;SDS011;42298;53.638;9.876;2022-09-09T13:23:37;9.45;;;2.75;;
56399;SDS011;42298;53.638;9.876;2022-09-09T13:26:06;10.30;;;3.42;;
56399;SDS011;42298;53.638;9.876;2022-09-09T13:28:46;6.57;;;2.45;;
56399;SDS011;42298;53.638;9.876;2022-09-09T13:31:30;5.28;;;2.50;;
56399;SDS011;42298;53.638;9.876;2022-09-09T13:34:10;8.82;;;3.03;;
56399;SDS011;42298;53.638;9.876;2022-09-09T13:36:39;9.75;;;2.80;;
56399;SDS011;42298;53.638;9.876;2022-09-09T13:39:13;7.22;;;3.20;;
56399;SDS011;42298;53.638;9.876;2022-09-09T13:41:44;6.20;;;1.95;;
56399;SDS011;42298;53.638;9.876;2022-09-09T13:44:16;2.88;;;1.30;;
56399;SDS011;42298;53.638;9.876;2022-09-09T13:46:45;3.35;;;1.27;;
56399;SDS011;42298;53.638;9.876;2022-09-09T13:54:12;1.85;;;1.20;;
56399;SDS011;42298;53.638;9.876;2022-09-09T13:56:41;4.35;;;1.55;;
56399;SDS011;42298;53.638;9.876;2022-09-09T13:59:15;2.33;;;1.30;;
56399;SDS011;42298;53.638;9.876;2022-09-09T14:01:41;4.88;;;1.90;;
56399;SDS011;42298;53.638;9.876;2022-09-09T14:04:07;10.45;;;1.92;;
56399;SDS011;42298;53.638;9.876;2022-09-09T14:06:34;5.03;;;1.70;;
56399;SDS011;42298;53.638;9.876;2022-09-09T14:09:03;3.80;;;1.92;;
56399;SDS011;42298;53.638;9.876;2022-09-09T14:11:29;5.13;;;2.03;;
56399;SDS011;42298;53.638;9.876;2022-09-09T14:13:54;8.05;;;2.38;;
56399;SDS011;42298;53.638;9.876;2022-09-09T14:16:20;7.15;;;2.38;;
56399;SDS011;42298;53.638;9.876;2022-09-09T14:18:46;4.65;;;2.30;;
56399;SDS011;42298;53.638;9.876;2022-09-09T14:21:13;5.65;;;2.50;;
56399;SDS011;42298;53.638;9.876;2022-09-09T14:23:39;9.25;;;2.72;;
56399;SDS011;42298;53.638;9.876;2022-09-09T14:26:07;7.70;;;3.00;;
56399;SDS011;42298;53.638;9.876;2022-09-09T14:28:34;6.93;;;2.75;;
56399;SDS011;42298;53.638;9.876;2022-09-09T14:31:01;7.20;;;2.40;;
56399;SDS011;42298;53.638;9.876;2022-09-09T14:33:28;8.18;;;2.60;;
56399;SDS011;42298;53.638;9.876;2022-09-09T14:35:57;10.90;;;3.00;;
56399;SDS011;42298;53.638;9.876;2022-09-09T14:38:30;7.55;;;2.70;;
56399;SDS011;42298;53.638;9.876;2022-09-09T14:41:02;8.38;;;3.30;;
56399;SDS011;42298;53.638;9.876;2022-09-09T14:43:28;8.60;;;3.50;;
56399;SDS011;42298;53.638;9.876;2022-09-09T14:45:55;7.95;;;3.25;;
56399;SDS011;42298;53.638;9.876;2022-09-09T14:48:21;7.60;;;3.25;;
56399;SDS011;42298;53.638;9.876;2022-09-09T14:50:46;9.75;;;3.60;;
56399;SDS011;42298;53.638;9.876;2022-09-09T14:53:12;9.60;;;4.07;;
56399;SDS011;42298;53.638;9.876;2022-09-09T14:55:37;9.07;;;3.83;;
56399;SDS011;42298;53.638;9.876;2022-09-09T14:58:03;10.25;;;4.20;;
56399;SDS011;42298;53.638;9.876;2022-09-09T15:00:30;6.90;;;2.90;;
56399;SDS011;42298;53.638;9.876;2022-09-09T15:02:55;7.22;;;3.00;;
56399;SDS011;42298;53.638;9.876;2022-09-09T15:05:21;9.27;;;3.30;;
56399;SDS011;42298;53.638;9.876;2022-09-09T15:07:47;8.25;;;3.10;;
56399;SDS011;42298;53.638;9.876;2022-09-09T15:10:16;4.78;;;2.60;;
56399;SDS011;42298;53.638;9.876;2022-09-09T15:12:42;7.20;;;2.55;;
56399;SDS011;42298;53.638;9.876;2022-09-09T15:15:08;5.30;;;2.45;;
56399;SDS011;42298;53.638;9.876;2022-09-09T15:17:34;4.55;;;2.00;;
56399;SDS011;42298;53.638;9.876;2022-09-09T15:20:00;4.47;;;2.28;;
56399;SDS011;42298;53.638;9.876;2022-09-09T15:22:25;7.40;;;2.40;;
56399;SDS011;42298;53.638;9.876;2022-09-09T15:24:51;5.70;;;2.65;;
56399;SDS011;42298;53.638;9.876;2022-09-09T15:27:16;4.90;;;2.20;;
56399;SDS011;42298;53.638;9.876;2022-09-09T15:29:43;5.68;;;2.40;;
56399;SDS011;42298;53.638;9.876;2022-09-09T15:32:09;4.95;;;2.42;;
56399;SDS011;42298;53.638;9.876;2022-09-09T15:34:34;8.65;;;2.60;;
56399;SDS011;42298;53.638;9.876;2022-09-09T15:37:00;5.05;;;2.28;;
56399;SDS011;42298;53.638;9.876;2022-09-09T15:39:25;7.00;;;2.47;;
56399;SDS011;42298;53.638;9.876;2022-09-09T15:41:51;7.28;;;2.60;;
56399;SDS011;42298;53.638;9.876;2022-09-09T15:44:16;5.35;;;2.22;;
56399;SDS011;42298;53.638;9.876;2022-09-09T15:46:49;6.97;;;2.30;;
56399;SDS011;42298;53.638;9.876;2022-09-09T15:49:19;5.97;;;2.58;;
56399;SDS011;42298;53.638;9.876;2022-09-09T15:51:45;5.47;;;2.53;;
56399;SDS011;42298;53.638;9.876;2022-09-09T15:54:16;6.13;;;2.10;;
56399;SDS011;42298;53.638;9.876;2022-09-09T15:56:43;7.70;;;2.53;;
56399;SDS011;42298;53.638;9.876;2022-09-09T15:59:10;4.63;;;2.40;;
56399;SDS011;42298;53.638;9.876;2022-09-09T16:01:36;7.15;;;2.80;;
56399;SDS011;42298;53.638;9.876;2022-09-09T16:04:02;7.43;;;2.28;;
56399;SDS011;42298;53.638;9.876;2022-09-09T16:06:28;4.60;;;2.17;;
56399;SDS011;42298;53.638;9.876;2022-09-09T16:08:55;4.60;;;2.20;;
56399;SDS011;42298;53.638;9.876;2022-09-09T16:11:23;6.07;;;2.50;;
56399;SDS011;42298;53.638;9.876;2022-09-09T16:13:54;6.13;;;2.20;;
56399;SDS011;42298;53.638;9.876;2022-09-09T16:16:21;5.22;;;2.40;;
56399;SDS011;42298;53.638;9.876;2022-09-09T16:18:52;4.50;;;2.10;;
56399;SDS011;42298;53.638;9.876;2022-09-09T16:23:54;5.82;;;2.28;;
56399;SDS011;42298;53.638;9.876;2022-09-09T16:26:19;5.03;;;2.15;;
56399;SDS011;42298;53.638;9.876;2022-09-09T16:28:45;6.82;;;2.40;;
56399;SDS011;42298;53.638;9.876;2022-09-09T16:31:21;4.88;;;2.22;;
56399;SDS011;42298;53.638;9.876;2022-09-09T16:33:48;7.40;;;2.88;;
56399;SDS011;42298;53.638;9.876;2022-09-09T16:36:16;10.48;;;2.60;;
56399;SDS011;42298;53.638;9.876;2022-09-09T16:38:47;12.55;;;3.10;;
56399;SDS011;42298;53.638;9.876;2022-09-09T16:41:16;8.40;;;3.17;;
56399;SDS011;42298;53.638;9.876;2022-09-09T16:43:41;5.32;;;2.65;;
56399;SDS011;42298;53.638;9.876;2022-09-09T16:46:14;6.57;;;2.58;;
56399;SDS011;42298;53.638;9.876;2022-09-09T16:48:41;6.90;;;2.60;;
56399;SDS011;42298;53.638;9.876;2022-09-09T16:51:11;7.00;;;2.65;;
56399;SDS011;42298;53.638;9.876;2022-09-09T16:53:50;5.63;;;2.40;;